< Cyclone 202102 2021 Season Cyclone 202107 >
Cyclone 202105 (Imogen)
General InformationTrack Information on Google MapsDetailed Wind Information || ResourceGoogle EarthGE AnimationAtom FeedGeoJSON
Year Month Day Hour Lat. Long. Pressure (hPa) Wind (kt) Class Image Chart
2021 1 1 00 -13.7 136.4 1005 15 2 Image --
2021 1 1 03 -13.8 136.5 1003 20 2 Image --
2021 1 1 12 -14.3 136.7 1002 20 2 Image --
2021 1 1 18 -14.3 136.8 1000 20 2 Image --
2021 1 2 00 -14.6 137.0 1000 20 2 Image --
2021 1 2 03 -14.7 137.1 1001 25 2 Image --
2021 1 2 06 -15.1 137.4 1000 25 2 Image --
2021 1 2 12 -15.3 138.0 1000 25 2 Image --
2021 1 2 15 -15.5 138.2 999 30 2 Image --
2021 1 2 18 -15.8 138.5 998 30 2 Image --
2021 1 2 21 -16.1 139.0 998 30 2 Image --
2021 1 3 00 -16.2 139.2 997 30 2 Image --
2021 1 3 01 -16.3 139.3 997 30 2 Image --
2021 1 3 02 -16.4 139.4 994 30 2 Image --
2021 1 3 03 -16.5 139.4 993 30 2 Image --
2021 1 3 06 -16.5 139.6 991 35 3 Image --
2021 1 3 09 -16.8 140.3 991 35 3 Image --
2021 1 3 12 -17.3 140.9 994 35 3 Image --
2021 1 3 15 -17.4 141.3 990 45 3 Image --
2021 1 3 18 -17.5 141.7 991 40 3 Image --
2021 1 3 21 -17.6 142.3 992 35 3 Image --
2021 1 4 00 -17.6 142.4 998 30 2 Image --
2021 1 4 03 -17.7 142.5 998 25 2 Image --
< Cyclone 202102 2021 Season Cyclone 202107 >

Help